Time;durP1;ratioP1;P1;durP2;ratioP2;P2;SDS_P1;SDS_P2;PMS_P1;PMS_P2;Temp;Humidity;BMP_temperature;BMP_pressure;BME280_temperature;BME280_humidity;BME280_pressure;Samples;Min_cycle;Max_cycle;Signal;HPM_P1;HPM_P2
2022/05/04 00:00:44;;;;;;;112.47;101.95;;;11.20;61.30;;;;;;4996801;28;20492;-74
2022/05/04 00:03:12;;;;;;;112.22;101.53;;;11.30;61.60;;;;;;4996886;28;20064;-74
2022/05/04 00:05:39;;;;;;;112.50;101.90;;;11.20;61.40;;;;;;5014650;28;20055;-74
2022/05/04 00:08:06;;;;;;;112.57;101.45;;;11.20;61.40;;;;;;4996439;28;20081;-74
2022/05/04 00:10:34;;;;;;;112.72;102.07;;;11.20;61.60;;;;;;4996733;28;20405;-74
2022/05/04 00:13:02;;;;;;;112.68;101.97;;;11.20;61.60;;;;;;4996854;28;20047;-74
2022/05/04 00:15:29;;;;;;;113.35;102.38;;;11.20;61.60;;;;;;4996426;28;20054;-74
2022/05/04 00:17:56;;;;;;;112.07;101.38;;;11.20;61.60;;;;;;4996696;28;20054;-74
2022/05/04 00:20:24;;;;;;;110.75;99.97;;;11.20;61.50;;;;;;4996587;28;20053;-74
2022/05/04 00:22:51;;;;;;;113.13;102.45;;;11.20;61.40;;;;;;5013921;28;20086;-74
2022/05/04 00:25:17;;;;;;;112.03;101.25;;;11.20;61.30;;;;;;4996665;28;20081;-73
2022/05/04 00:27:44;;;;;;;111.78;101.25;;;11.20;61.80;;;;;;4996450;28;20101;-74
2022/05/04 00:30:13;;;;;;;112.50;101.82;;;11.10;61.40;;;;;;5012982;28;20528;-74
2022/05/04 00:32:41;;;;;;;112.07;101.47;;;11.10;61.40;;;;;;5014354;28;20058;-73
2022/05/04 00:35:09;;;;;;;111.82;100.72;;;11.10;61.10;;;;;;4996237;28;20046;-74
2022/05/04 00:37:36;;;;;;;112.30;101.57;;;11.10;61.00;;;;;;5013931;28;20505;-74
2022/05/04 00:40:03;;;;;;;111.03;100.32;;;11.10;61.20;;;;;;4996292;28;20051;-74
2022/05/04 00:42:30;;;;;;;112.60;101.55;;;11.10;61.50;;;;;;4996370;28;20046;-73
2022/05/04 00:44:57;;;;;;;112.05;101.43;;;11.00;61.60;;;;;;4996034;28;20518;-74
2022/05/04 00:47:25;;;;;;;112.18;101.85;;;11.00;61.60;;;;;;4996057;28;20134;-74
2022/05/04 00:49:54;;;;;;;112.43;101.65;;;11.00;61.70;;;;;;4995836;28;20529;-74
2022/05/04 00:52:21;;;;;;;111.82;101.43;;;11.00;61.80;;;;;;4996295;28;20136;-74
2022/05/04 00:54:50;;;;;;;111.50;100.85;;;11.00;61.80;;;;;;4995954;28;20433;-74
2022/05/04 00:58:54;;;;;;;112.70;102.00;;;11.00;62.10;;;;;;4995877;28;20049;-73
2022/05/04 01:00:09;;;;;;;111.45;100.82;;;11.00;62.00;;;;;;4995413;28;20047;-73
2022/05/04 01:02:38;;;;;;;111.63;100.97;;;11.00;61.80;;;;;;4996026;28;20051;-74
2022/05/04 01:05:09;;;;;;;112.45;101.65;;;11.00;61.70;;;;;;5013676;28;20061;-74
2022/05/04 01:07:36;;;;;;;111.93;100.57;;;11.00;61.70;;;;;;4994646;28;20042;-74
2022/05/04 01:10:04;;;;;;;110.97;100.38;;;10.90;61.60;;;;;;4995865;28;20508;-73
2022/05/04 01:12:31;;;;;;;112.05;101.20;;;10.90;61.50;;;;;;4996123;28;20577;-73
2022/05/04 01:14:58;;;;;;;110.30;99.70;;;10.90;61.40;;;;;;4995989;28;20050;-74
2022/05/04 01:17:26;;;;;;;113.03;102.00;;;10.90;61.40;;;;;;4995455;28;20066;-74
2022/05/04 01:19:55;;;;;;;112.40;101.35;;;10.90;61.40;;;;;;4995799;28;20050;-74
2022/05/04 01:22:24;;;;;;;111.50;100.57;;;10.90;61.70;;;;;;4995545;28;20051;-74
2022/05/04 01:24:51;;;;;;;111.53;101.18;;;10.90;61.70;;;;;;4995825;28;20066;-74
2022/05/04 01:27:18;;;;;;;113.07;102.57;;;10.80;61.50;;;;;;4995288;28;20049;-73
2022/05/04 01:29:47;;;;;;;112.32;101.63;;;10.80;61.40;;;;;;4995395;28;20057;-74
2022/05/04 01:32:14;;;;;;;110.95;100.55;;;10.80;61.40;;;;;;4995585;28;20080;-74
2022/05/04 01:34:41;;;;;;;112.32;101.68;;;10.80;61.50;;;;;;4995866;28;21039;-74
2022/05/04 01:37:08;;;;;;;114.28;103.40;;;10.80;61.50;;;;;;4995305;28;20133;-74
2022/05/04 01:39:36;;;;;;;111.43;100.80;;;10.70;61.50;;;;;;5013097;28;20141;-74
2022/05/04 01:42:03;;;;;;;112.38;101.57;;;10.70;61.60;;;;;;4995538;28;20056;-73
2022/05/04 01:44:30;;;;;;;110.35;99.95;;;10.70;61.70;;;;;;5013297;28;20491;-73
2022/05/04 01:46:57;;;;;;;112.15;101.57;;;10.70;61.80;;;;;;5013254;28;20076;-74
2022/05/04 01:49:24;;;;;;;112.15;101.40;;;10.60;61.80;;;;;;5012928;28;20058;-74
2022/05/04 01:51:51;;;;;;;112.30;101.65;;;10.60;61.80;;;;;;4995251;28;20539;-74
2022/05/04 01:54:18;;;;;;;112.30;101.55;;;10.60;61.80;;;;;;4995022;28;20054;-74
2022/05/04 01:56:46;;;;;;;112.45;101.85;;;10.50;61.60;;;;;;4995222;28;20484;-74
2022/05/04 01:59:13;;;;;;;110.85;100.47;;;10.50;61.70;;;;;;4994955;28;20109;-74
2022/05/04 02:01:41;;;;;;;110.80;100.05;;;10.50;61.90;;;;;;4995337;28;20501;-74
2022/05/04 02:04:09;;;;;;;111.68;101.07;;;10.50;62.00;;;;;;4995168;28;20528;-74
2022/05/04 02:06:37;;;;;;;111.75;100.72;;;10.50;62.00;;;;;;4995036;28;20047;-73
2022/05/04 02:09:05;;;;;;;109.28;98.95;;;10.50;61.90;;;;;;4995025;28;20137;-74
2022/05/04 02:11:33;;;;;;;111.63;101.20;;;10.50;61.90;;;;;;4994726;28;20050;-74
2022/05/04 02:14:01;;;;;;;111.47;100.90;;;10.40;61.90;;;;;;4995262;28;20050;-74
2022/05/04 02:16:29;;;;;;;110.95;100.55;;;10.40;62.00;;;;;;4994909;28;20199;-73
2022/05/04 02:18:56;;;;;;;112.15;101.68;;;10.40;62.10;;;;;;4994294;28;20051;-74
2022/05/04 02:21:24;;;;;;;112.55;101.72;;;10.40;62.30;;;;;;5010623;28;20509;-74
2022/05/04 02:23:51;;;;;;;112.45;101.95;;;10.40;62.30;;;;;;5012203;28;20055;-74
2022/05/04 02:26:18;;;;;;;110.15;99.63;;;10.40;62.10;;;;;;4995019;28;20051;-74
2022/05/04 02:28:45;;;;;;;111.20;100.45;;;10.40;62.10;;;;;;5012239;28;20077;-73
2022/05/04 02:31:14;;;;;;;111.15;100.55;;;10.40;62.10;;;;;;4995368;28;20046;-73
2022/05/04 02:33:42;;;;;;;111.20;100.53;;;10.40;62.20;;;;;;4994958;28;20074;-73
2022/05/04 02:38:53;;;;;;;112.70;101.97;;;10.40;62.50;;;;;;4994814;28;20055;-74
2022/05/04 02:41:20;;;;;;;112.32;101.50;;;10.30;62.50;;;;;;5012523;28;20509;-73
2022/05/04 02:43:47;;;;;;;111.68;100.75;;;10.30;63.10;;;;;;4994466;28;20074;-74
2022/05/04 02:46:16;;;;;;;111.60;100.88;;;10.30;62.60;;;;;;4994382;28;20138;-74
2022/05/04 02:48:43;;;;;;;111.40;100.68;;;10.30;62.60;;;;;;4994042;28;20477;-74
2022/05/04 02:51:10;;;;;;;111.55;100.82;;;10.30;62.60;;;;;;5012138;28;20055;-74
2022/05/04 02:53:37;;;;;;;112.65;101.53;;;10.30;62.50;;;;;;4994475;28;20054;-73
2022/05/04 02:56:06;;;;;;;112.05;101.38;;;10.30;62.60;;;;;;4994796;28;20060;-73
2022/05/04 02:58:33;;;;;;;110.75;100.25;;;10.30;62.70;;;;;;4994027;28;20637;-73
2022/05/04 03:03:53;;;;;;;109.38;98.80;;;10.30;62.90;;;;;;5010594;28;20054;-73
2022/05/04 03:06:20;;;;;;;111.93;101.38;;;10.20;62.80;;;;;;4994507;28;20045;-73
2022/05/04 03:08:47;;;;;;;109.40;99.10;;;10.30;63.40;;;;;;4994212;28;20133;-73
2022/05/04 03:13:58;;;;;;;111.45;100.85;;;10.10;63.50;;;;;;4994420;28;20197;-74
2022/05/04 03:16:25;;;;;;;111.40;100.65;;;10.10;63.60;;;;;;4994169;28;20046;-73
2022/05/04 03:18:53;;;;;;;111.35;100.55;;;10.10;63.80;;;;;;5011985;28;20505;-73
2022/05/04 03:21:20;;;;;;;111.25;100.65;;;10.10;63.70;;;;;;4994270;28;20050;-74
2022/05/04 03:23:47;;;;;;;112.15;101.35;;;10.10;63.60;;;;;;5011723;28;20057;-74
2022/05/04 03:26:14;;;;;;;111.43;100.82;;;10.10;63.60;;;;;;4994380;28;20421;-73
2022/05/04 03:28:41;;;;;;;110.60;99.97;;;10.10;63.80;;;;;;5011398;28;21024;-73
2022/05/04 03:31:08;;;;;;;111.75;100.68;;;10.10;63.80;;;;;;4996180;28;20117;-74
2022/05/04 03:33:35;;;;;;;111.65;100.90;;;10.00;64.10;;;;;;4997095;28;20440;-74
2022/05/04 03:36:04;;;;;;;111.30;100.93;;;10.00;63.90;;;;;;4996899;28;20122;-73
2022/05/04 03:38:31;;;;;;;110.60;99.75;;;10.00;64.20;;;;;;5014341;28;20054;-73
2022/05/04 03:40:58;;;;;;;111.78;101.10;;;10.00;64.30;;;;;;4996894;28;20057;-73
2022/05/04 03:43:25;;;;;;;112.93;101.80;;;10.00;64.30;;;;;;4996922;28;20137;-74
2022/05/04 03:45:52;;;;;;;110.75;100.25;;;10.00;64.20;;;;;;5014699;28;20556;-74
2022/05/04 03:48:19;;;;;;;110.38;99.88;;;10.00;64.30;;;;;;4996651;28;20101;-74
2022/05/04 03:50:46;;;;;;;110.15;99.65;;;10.00;64.50;;;;;;4997381;28;20051;-74
2022/05/04 03:53:15;;;;;;;111.03;100.60;;;10.00;64.70;;;;;;4996955;28;20058;-74
2022/05/04 03:55:42;;;;;;;111.03;100.72;;;10.00;64.90;;;;;;4996610;28;20051;-73
2022/05/04 03:58:09;;;;;;;109.95;99.65;;;10.00;64.90;;;;;;4996540;28;20057;-74
2022/05/04 04:00:36;;;;;;;111.32;100.82;;;10.00;65.00;;;;;;4997063;28;20057;-74
2022/05/04 04:03:03;;;;;;;110.55;100.25;;;10.00;65.20;;;;;;4996732;28;20137;-74
2022/05/04 04:05:30;;;;;;;111.97;101.55;;;10.00;65.20;;;;;;4996542;28;20047;-73
2022/05/04 04:07:57;;;;;;;110.57;100.05;;;10.00;65.20;;;;;;4996287;28;20138;-73
2022/05/04 04:10:25;;;;;;;110.70;100.40;;;10.00;65.20;;;;;;4996351;28;20057;-73
2022/05/04 04:12:52;;;;;;;112.03;101.10;;;10.00;65.30;;;;;;4996732;28;20062;-73
2022/05/04 04:15:19;;;;;;;111.00;100.25;;;10.00;65.40;;;;;;5014127;28;20061;-73
2022/05/04 04:17:46;;;;;;;111.70;101.13;;;10.00;65.60;;;;;;4996268;28;20569;-73
2022/05/04 04:22:57;;;;;;;112.00;99.78;;;10.00;65.70;;;;;;5014147;28;20177;-74
2022/05/04 04:25:25;;;;;;;111.93;100.28;;;10.00;65.70;;;;;;5014219;28;20046;-74
2022/05/04 04:27:52;;;;;;;112.57;100.35;;;10.00;65.70;;;;;;4995922;28;20473;-73
2022/05/04 04:30:19;;;;;;;109.80;99.40;;;10.00;65.90;;;;;;4996400;28;20053;-73
2022/05/04 04:32:46;;;;;;;109.55;98.50;;;10.00;65.90;;;;;;4995994;28;20055;-73
2022/05/04 04:35:13;;;;;;;109.38;98.68;;;9.90;65.90;;;;;;4996299;28;20126;-73
2022/05/04 04:37:40;;;;;;;108.85;98.22;;;9.90;66.00;;;;;;4996424;28;20065;-74
2022/05/04 04:40:08;;;;;;;111.25;100.55;;;9.90;66.20;;;;;;4996736;28;20054;-73
2022/05/04 04:42:37;;;;;;;110.68;99.18;;;9.90;66.50;;;;;;4996448;28;20576;-73
2022/05/04 04:45:04;;;;;;;112.30;100.13;;;9.90;66.70;;;;;;4996093;28;20054;-73
2022/05/04 04:47:32;;;;;;;112.22;100.10;;;9.90;67.00;;;;;;4996048;28;20129;-74
2022/05/04 04:49:59;;;;;;;112.35;100.60;;;9.90;67.20;;;;;;4996172;28;20057;-73
2022/05/04 04:52:26;;;;;;;110.63;99.88;;;9.90;67.40;;;;;;5014368;28;20065;-73
2022/05/04 04:54:53;;;;;;;110.63;99.55;;;9.90;67.40;;;;;;5013866;28;20059;-73
2022/05/04 04:57:20;;;;;;;108.53;98.28;;;9.90;67.20;;;;;;4995555;28;20056;-73
2022/05/04 04:59:49;;;;;;;109.93;99.38;;;10.00;67.00;;;;;;4996103;28;20543;-73
2022/05/04 05:02:16;;;;;;;111.07;100.38;;;10.00;66.80;;;;;;5013646;28;20061;-74
2022/05/04 05:04:43;;;;;;;109.32;98.72;;;10.00;66.50;;;;;;4995828;28;20061;-73
2022/05/04 05:07:10;;;;;;;113.03;102.00;;;10.00;66.00;;;;;;4995450;28;20512;-73
2022/05/04 05:09:37;;;;;;;110.45;100.13;;;10.00;65.60;;;;;;4995988;28;20053;-73
2022/05/04 05:12:05;;;;;;;110.20;99.32;;;9.90;65.30;;;;;;4995833;28;20061;-73
2022/05/04 05:17:17;;;;;;;111.07;100.78;;;9.90;65.20;;;;;;4995441;28;20046;-73
2022/05/04 05:19:45;;;;;;;109.80;99.15;;;9.90;64.90;;;;;;4995267;28;20050;-73
2022/05/04 05:22:12;;;;;;;110.00;99.32;;;9.80;64.80;;;;;;4995865;28;20058;-73
2022/05/04 05:24:38;;;;;;;110.30;99.57;;;9.80;64.70;;;;;;4995664;28;20053;-73
2022/05/04 05:27:08;;;;;;;111.25;100.50;;;9.80;64.70;;;;;;4995296;28;20058;-74
2022/05/04 05:29:35;;;;;;;111.10;100.28;;;9.80;64.70;;;;;;4996006;28;20509;-73
2022/05/04 05:32:02;;;;;;;109.32;99.00;;;9.70;64.60;;;;;;4996026;28;20503;-73
2022/05/04 05:34:33;;;;;;;110.82;100.05;;;9.70;64.50;;;;;;5013164;28;20058;-73
2022/05/04 05:37:00;;;;;;;111.57;100.80;;;9.60;64.50;;;;;;4995123;28;20056;-73
2022/05/04 05:39:27;;;;;;;110.57;99.90;;;9.60;64.60;;;;;;4995745;28;20119;-73
2022/05/04 05:41:54;;;;;;;110.00;99.57;;;9.60;64.60;;;;;;4995470;28;20457;-73
2022/05/04 05:44:22;;;;;;;109.88;99.53;;;9.60;64.60;;;;;;4995487;28;20046;-73
2022/05/04 05:46:49;;;;;;;109.43;99.10;;;9.60;64.50;;;;;;4995413;28;20060;-73
2022/05/04 05:49:15;;;;;;;109.28;98.32;;;9.60;64.40;;;;;;4995305;28;20101;-73
2022/05/04 05:51:44;;;;;;;110.78;100.28;;;9.60;64.50;;;;;;4995158;28;20054;-73
2022/05/04 05:54:11;;;;;;;109.80;98.90;;;9.70;64.60;;;;;;4994669;28;20049;-73
2022/05/04 05:56:38;;;;;;;110.25;99.68;;;9.60;64.50;;;;;;4994867;28;20061;-73
2022/05/04 05:59:05;;;;;;;110.32;99.45;;;9.60;64.70;;;;;;4994894;28;20675;-73
2022/05/04 06:01:32;;;;;;;110.65;99.75;;;9.60;64.70;;;;;;4995261;28;20050;-73
2022/05/04 06:03:59;;;;;;;109.03;98.25;;;9.60;64.80;;;;;;4995216;28;20529;-73
2022/05/04 06:06:26;;;;;;;109.80;99.35;;;9.60;64.60;;;;;;4994807;28;20603;-73
2022/05/04 06:08:54;;;;;;;108.95;98.72;;;9.60;64.40;;;;;;4995014;28;20081;-73
2022/05/04 06:11:21;;;;;;;109.85;99.40;;;9.60;63.60;;;;;;5013023;28;20125;-73
2022/05/04 06:13:52;;;;;;;108.50;98.18;;;9.60;63.10;;;;;;4994860;28;20050;-73
2022/05/04 06:16:19;;;;;;;108.72;98.30;;;9.60;62.70;;;;;;4995128;28;20501;-73
2022/05/04 06:18:46;;;;;;;109.03;98.68;;;9.60;62.60;;;;;;5012510;28;20056;-73
2022/05/04 06:21:13;;;;;;;108.82;98.55;;;9.60;62.30;;;;;;4994974;28;20072;-73
2022/05/04 06:23:40;;;;;;;109.40;98.90;;;9.60;62.40;;;;;;4995045;28;20051;-73
2022/05/04 06:26:08;;;;;;;108.38;98.07;;;9.60;62.80;;;;;;5012342;28;20460;-73
2022/05/04 06:28:35;;;;;;;109.15;98.95;;;9.60;62.80;;;;;;4994997;28;20046;-73
2022/05/04 06:36:31;;;;;;;109.72;99.15;;;9.70;62.30;;;;;;4994886;28;20120;-73
2022/05/04 06:38:57;;;;;;;;;;;9.60;62.10;;;;;;4995043;28;20056;-73
2022/05/04 06:41:27;;;;;;;109.47;98.85;;;9.70;62.10;;;;;;5011428;28;19926;-73
2022/05/04 06:43:54;;;;;;;110.68;99.85;;;9.60;61.90;;;;;;5011927;28;20057;-73
2022/05/04 06:46:21;;;;;;;110.28;99.50;;;9.60;61.90;;;;;;4994916;28;20133;-73
2022/05/04 06:48:48;;;;;;;108.47;97.88;;;9.60;61.90;;;;;;4994343;28;20050;-73
2022/05/04 06:51:15;;;;;;;;;;;9.60;61.40;;;;;;4995097;28;20070;-73
2022/05/04 06:53:42;;;;;;;110.38;99.45;;;9.60;61.40;;;;;;4994945;28;19965;-73
2022/05/04 06:56:10;;;;;;;111.15;100.43;;;9.60;61.90;;;;;;4994652;28;20054;-72
2022/05/04 06:58:38;;;;;;;110.53;99.47;;;9.60;62.20;;;;;;4993820;28;20054;-73
2022/05/04 07:01:07;;;;;;;109.03;98.78;;;9.60;62.00;;;;;;4994643;28;20506;-73
2022/05/04 07:03:34;;;;;;;108.63;98.38;;;9.70;61.90;;;;;;4994583;28;20053;-73
2022/05/04 07:06:00;;;;;;;110.07;99.68;;;9.70;61.80;;;;;;5014435;28;20054;-73
2022/05/04 07:08:27;;;;;;;110.65;100.03;;;9.70;61.60;;;;;;4997819;28;20435;-73
2022/05/04 07:10:54;;;;;;;110.25;99.53;;;9.70;61.40;;;;;;4997440;28;20494;-73
2022/05/04 07:13:21;;;;;;;109.50;98.95;;;9.60;61.70;;;;;;5015586;28;20055;-73
2022/05/04 07:15:49;;;;;;;109.80;99.55;;;9.70;61.90;;;;;;4997624;28;20047;-73
2022/05/04 07:18:17;;;;;;;110.68;99.72;;;9.70;61.90;;;;;;4997853;28;20056;-73
2022/05/04 07:20:43;;;;;;;110.20;99.28;;;9.70;61.70;;;;;;4997732;28;20129;-73
2022/05/04 07:23:11;;;;;;;110.00;99.10;;;9.70;61.40;;;;;;5015324;28;20051;-73
2022/05/04 07:25:37;;;;;;;109.15;98.60;;;9.70;61.60;;;;;;4997171;28;20516;-73
2022/05/04 07:28:06;;;;;;;110.57;99.70;;;9.70;61.80;;;;;;4997271;28;20042;-73
2022/05/04 07:30:33;;;;;;;109.45;98.72;;;9.80;61.90;;;;;;4997692;28;20054;-73
2022/05/04 07:33:01;;;;;;;;;;;9.80;61.80;;;;;;5015391;28;20551;-73
2022/05/04 07:35:28;;;;;;;109.55;99.00;;;9.80;62.00;;;;;;5013895;28;20020;-73
2022/05/04 07:37:55;;;;;;;111.15;100.30;;;9.80;62.10;;;;;;4997461;28;20054;-73
2022/05/04 07:43:07;;;;;;;109.80;99.13;;;9.90;62.30;;;;;;4997529;28;20096;-73
2022/05/04 07:45:34;;;;;;;109.32;98.65;;;9.90;62.40;;;;;;4997555;28;20064;-73
2022/05/04 07:48:02;;;;;;;109.97;99.63;;;10.00;62.80;;;;;;4997440;28;20039;-73
2022/05/04 07:50:29;;;;;;;111.22;100.55;;;10.00;62.80;;;;;;5014658;28;20070;-73
2022/05/04 07:52:56;;;;;;;;;;;10.00;62.50;;;;;;4997532;28;20133;-73
2022/05/04 07:55:23;;;;;;;112.05;100.63;;;10.10;62.60;;;;;;4997441;28;19926;-73
2022/05/04 07:57:51;;;;;;;;;;;10.10;63.10;;;;;;4996797;28;20509;-73
2022/05/04 08:06:00;;;;;;;110.63;99.97;;;10.20;62.20;;;;;;4972585;28;21277;-73
2022/05/04 08:08:27;;;;;;;111.18;100.40;;;10.30;62.20;;;;;;4986810;28;20042;-73
2022/05/04 08:10:54;;;;;;;111.82;100.95;;;10.40;62.10;;;;;;4997152;28;20557;-73
2022/05/04 08:13:21;;;;;;;109.85;99.53;;;10.40;61.40;;;;;;4996762;28;20049;-73
2022/05/04 08:15:48;;;;;;;110.43;99.38;;;10.40;61.70;;;;;;5012706;28;20058;-73
2022/05/04 08:18:16;;;;;;;110.32;99.75;;;10.50;61.80;;;;;;5014183;28;20058;-73
2022/05/04 08:20:44;;;;;;;111.25;100.70;;;10.50;61.80;;;;;;4996913;28;20054;-73
2022/05/04 08:23:11;;;;;;;110.53;99.93;;;10.50;61.60;;;;;;5013990;28;20050;-73
2022/05/04 08:25:38;;;;;;;113.15;102.38;;;10.50;61.70;;;;;;4996726;28;20050;-73
2022/05/04 08:28:05;;;;;;;111.40;100.50;;;10.60;61.70;;;;;;4996100;28;20539;-73
2022/05/04 08:30:32;;;;;;;111.05;100.35;;;10.60;60.80;;;;;;5014319;28;20059;-73
2022/05/04 08:32:59;;;;;;;111.45;100.47;;;10.60;60.90;;;;;;4997083;28;20472;-73
2022/05/04 08:35:27;;;;;;;111.95;101.47;;;10.60;60.90;;;;;;4996860;28;20050;-73
2022/05/04 08:37:54;;;;;;;111.53;100.82;;;10.60;60.60;;;;;;4996306;28;20056;-73
2022/05/04 08:40:21;;;;;;;112.28;101.20;;;10.70;60.80;;;;;;5014202;28;20080;-73
2022/05/04 08:42:49;;;;;;;112.22;100.93;;;10.70;61.10;;;;;;4996519;28;20497;-73
2022/05/04 08:45:16;;;;;;;110.85;100.22;;;10.70;61.40;;;;;;5013984;28;20050;-73
2022/05/04 08:47:45;;;;;;;112.18;101.18;;;10.70;61.80;;;;;;4996268;28;20054;-73
2022/05/04 08:50:14;;;;;;;113.18;102.47;;;10.80;62.20;;;;;;5014044;28;20054;-73
2022/05/04 08:52:51;;;;;;;114.50;103.68;;;10.80;61.60;;;;;;4995985;28;20137;-73
2022/05/04 08:55:19;;;;;;;113.45;102.55;;;10.90;61.40;;;;;;5013634;28;20069;-73
2022/05/04 08:57:46;;;;;;;112.13;101.20;;;10.90;61.00;;;;;;4995935;28;20047;-73
2022/05/04 09:00:14;;;;;;;111.65;100.97;;;11.00;61.30;;;;;;4996257;28;20089;-73
2022/05/04 09:02:41;;;;;;;112.35;101.75;;;11.00;61.10;;;;;;4995923;28;20042;-73
2022/05/04 09:05:17;;;;;;;114.00;102.95;;;11.00;61.40;;;;;;5013566;28;20157;-73
2022/05/04 09:07:48;;;;;;;112.88;101.90;;;11.10;62.30;;;;;;5013252;28;20169;-73
2022/05/04 09:10:20;;;;;;;113.80;102.88;;;11.20;62.50;;;;;;4996017;28;20050;-73
2022/05/04 09:12:49;;;;;;;111.35;100.75;;;11.20;63.10;;;;;;4995870;28;20053;-73
2022/05/04 09:15:21;;;;;;;111.30;100.65;;;11.30;63.10;;;;;;4996032;28;20596;-73
2022/05/04 09:17:57;;;;;;;112.70;101.80;;;11.40;62.80;;;;;;4995785;28;20530;-73
2022/05/04 09:20:48;;;;;;;109.27;99.00;;;11.50;62.50;;;;;;4996204;28;20050;-73
2022/05/04 09:23:19;;;;;;;111.05;100.28;;;11.50;62.30;;;;;;4995784;28;20267;-73
2022/05/04 09:25:50;;;;;;;111.93;101.47;;;11.60;61.90;;;;;;4995419;28;20050;-73
2022/05/04 09:28:17;;;;;;;112.05;101.45;;;11.70;61.70;;;;;;4994907;28;20050;-73
2022/05/04 09:30:46;;;;;;;111.93;101.32;;;11.70;61.60;;;;;;4995353;28;20591;-73
2022/05/04 09:33:18;;;;;;;111.18;100.47;;;11.80;61.30;;;;;;4995632;28;20516;-73
2022/05/04 09:35:45;;;;;;;112.10;101.57;;;11.80;61.30;;;;;;5013208;28;20050;-73
2022/05/04 09:46:39;;;;;;;111.90;101.30;;;12.10;60.30;;;;;;4995171;28;20047;-73
2022/05/04 09:49:17;;;;;;;111.72;100.82;;;12.10;60.00;;;;;;4995037;28;20109;-73
2022/05/04 09:51:48;;;;;;;112.38;101.95;;;12.20;59.80;;;;;;5012851;28;20058;-73
2022/05/04 09:54:20;;;;;;;112.93;102.40;;;12.20;60.40;;;;;;4995119;28;20053;-73
2022/05/04 09:56:50;;;;;;;112.95;102.35;;;12.20;61.00;;;;;;4994922;28;20504;-73
2022/05/04 09:59:19;;;;;;;112.68;101.97;;;12.30;60.80;;;;;;5012770;28;20133;-73
2022/05/04 10:01:47;;;;;;;117.35;106.22;;;12.40;60.50;;;;;;5012593;28;20065;-73
2022/05/04 10:04:15;;;;;;;114.38;104.03;;;12.40;60.50;;;;;;4995512;28;20046;-73
2022/05/04 10:06:43;;;;;;;114.25;103.35;;;12.50;60.70;;;;;;4995126;28;20054;-73
2022/05/04 10:09:10;;;;;;;111.72;101.15;;;12.60;60.80;;;;;;5012767;28;20666;-73
2022/05/04 10:11:39;;;;;;;113.88;103.18;;;12.60;60.40;;;;;;5012306;28;20133;-73
2022/05/04 10:14:10;;;;;;;113.20;102.75;;;12.70;59.60;;;;;;5011462;28;20047;-73
2022/05/04 10:16:47;;;;;;;113.85;103.60;;;12.80;59.40;;;;;;4995064;28;20148;-73
2022/05/04 10:19:21;;;;;;;112.15;101.93;;;12.80;59.80;;;;;;4994956;28;20142;-73
2022/05/04 10:21:53;;;;;;;110.10;100.10;;;12.80;60.10;;;;;;4995163;28;20133;-73
2022/05/04 10:24:21;;;;;;;111.57;101.28;;;12.90;60.60;;;;;;4994943;28;20043;-73
2022/05/04 10:26:48;;;;;;;113.15;102.68;;;13.00;60.00;;;;;;5012493;28;20051;-73
2022/05/04 10:32:08;;;;;;;115.35;104.65;;;13.10;60.20;;;;;;5012592;28;20054;-73
2022/05/04 10:34:41;;;;;;;116.00;105.53;;;13.20;59.60;;;;;;4994961;28;20517;-73
2022/05/04 10:37:09;;;;;;;118.38;107.78;;;13.30;59.40;;;;;;4994300;28;20135;-74
2022/05/04 10:39:36;;;;;;;116.70;105.28;;;13.30;59.20;;;;;;4996391;28;20046;-73
2022/05/04 10:42:03;;;;;;;114.28;104.10;;;13.40;58.90;;;;;;4998609;28;20050;-73
2022/05/04 10:44:54;;;;;;;114.35;104.03;;;13.50;59.40;;;;;;4998244;28;20043;-73
2022/05/04 10:47:22;;;;;;;114.85;104.45;;;13.50;59.40;;;;;;4998054;28;20088;-74
2022/05/04 10:49:59;;;;;;;115.13;104.72;;;13.60;59.50;;;;;;5015672;28;20051;-74
2022/05/04 10:52:32;;;;;;;114.78;104.57;;;13.70;59.70;;;;;;4998633;28;20081;-73
2022/05/04 10:55:03;;;;;;;115.07;104.78;;;13.80;59.20;;;;;;5015919;28;20047;-74
2022/05/04 10:57:42;;;;;;;113.97;103.93;;;13.80;59.10;;;;;;4997075;28;20051;-74
2022/05/04 11:00:12;;;;;;;114.72;104.70;;;14.00;59.70;;;;;;4998233;28;20193;-74
2022/05/04 11:02:43;;;;;;;114.53;104.28;;;14.10;60.00;;;;;;5015691;28;20141;-73
2022/05/04 11:05:15;;;;;;;112.38;102.70;;;14.20;59.40;;;;;;4997949;28;20547;-74
2022/05/04 11:07:46;;;;;;;114.35;104.18;;;14.30;58.80;;;;;;4997642;28;20058;-74
2022/05/04 11:10:15;;;;;;;113.22;103.03;;;14.30;58.80;;;;;;4998048;28;20488;-74
2022/05/04 11:12:43;;;;;;;115.40;105.20;;;14.40;59.10;;;;;;4997207;28;20050;-74
2022/05/04 11:15:12;;;;;;;114.40;104.43;;;14.50;59.50;;;;;;4997461;28;20054;-74
2022/05/04 11:17:39;;;;;;;115.45;105.35;;;14.60;59.10;;;;;;4997207;28;20062;-74
2022/05/04 11:20:12;;;;;;;115.60;105.35;;;14.70;58.50;;;;;;4997884;28;20046;-74
2022/05/04 11:22:40;;;;;;;117.60;105.57;;;14.70;58.10;;;;;;4997772;28;20058;-74
2022/05/04 11:25:09;;;;;;;117.82;106.63;;;14.80;58.20;;;;;;5014782;28;20054;-73
2022/05/04 11:27:36;;;;;;;118.05;107.68;;;14.90;58.20;;;;;;4997072;28;20547;-74
2022/05/04 11:30:05;;;;;;;117.43;107.20;;;14.90;58.10;;;;;;4997530;28;20043;-74
2022/05/04 11:32:34;;;;;;;116.82;106.30;;;15.00;58.30;;;;;;5015278;28;20050;-74
2022/05/04 11:35:01;;;;;;;115.32;105.03;;;15.10;58.20;;;;;;4997541;28;20074;-74
2022/05/04 11:37:31;;;;;;;116.15;106.15;;;15.20;58.50;;;;;;5014861;28;20580;-74
2022/05/04 11:39:58;;;;;;;114.88;104.78;;;15.30;58.20;;;;;;5015090;28;20142;-74
2022/05/04 11:42:25;;;;;;;116.22;106.07;;;15.40;57.50;;;;;;4997451;28;20057;-74
2022/05/04 11:44:54;;;;;;;116.45;106.57;;;15.40;56.80;;;;;;4997451;28;20444;-74
2022/05/04 11:47:22;;;;;;;117.85;107.57;;;15.50;56.10;;;;;;4996878;28;20125;-74
2022/05/04 11:49:50;;;;;;;115.97;105.90;;;15.50;55.90;;;;;;4997046;28;20043;-74
2022/05/04 11:52:18;;;;;;;116.50;106.25;;;15.50;55.00;;;;;;4996167;28;20520;-74
2022/05/04 11:54:45;;;;;;;115.03;105.32;;;15.40;55.30;;;;;;4996938;28;20078;-74
2022/05/04 11:57:13;;;;;;;118.13;108.10;;;15.40;55.80;;;;;;5014081;28;20054;-74
2022/05/04 11:59:40;;;;;;;117.45;107.40;;;15.40;56.20;;;;;;4996798;28;20050;-74
2022/05/04 12:02:08;;;;;;;118.03;108.03;;;15.50;56.70;;;;;;4996943;28;20056;-74
2022/05/04 12:04:36;;;;;;;118.53;108.53;;;15.50;56.30;;;;;;5014845;28;20043;-74
2022/05/04 12:07:05;;;;;;;116.70;106.82;;;15.70;56.60;;;;;;5012745;28;20051;-74
2022/05/04 12:09:32;;;;;;;114.60;104.70;;;15.70;56.50;;;;;;4996878;28;20043;-74
2022/05/04 12:11:59;;;;;;;116.93;106.93;;;15.80;56.50;;;;;;4997054;28;20081;-74
2022/05/04 12:14:28;;;;;;;115.78;105.68;;;16.00;56.50;;;;;;4996842;28;20516;-74
2022/05/04 12:16:56;;;;;;;117.15;107.22;;;16.10;56.20;;;;;;4996365;28;20058;-75
2022/05/04 12:19:23;;;;;;;117.10;107.00;;;16.20;56.20;;;;;;4996505;28;20505;-74
2022/05/04 12:21:50;;;;;;;118.13;107.88;;;16.30;56.60;;;;;;5014607;28;20090;-74
2022/05/04 12:24:21;;;;;;;117.68;107.68;;;16.40;55.80;;;;;;4997078;28;20042;-74
2022/05/04 12:26:48;;;;;;;118.97;109.05;;;16.50;55.70;;;;;;5013819;28;20512;-74
2022/05/04 12:34:45;;;;;;;118.20;108.13;;;16.60;53.40;;;;;;5014157;28;20081;-74
2022/05/04 12:37:14;;;;;;;120.53;110.40;;;16.60;53.40;;;;;;4996280;28;20125;-74
2022/05/04 12:39:43;;;;;;;119.22;109.63;;;16.60;52.90;;;;;;4996380;28;20129;-74
2022/05/04 12:42:10;;;;;;;120.55;110.00;;;16.60;52.10;;;;;;4996391;28;20113;-74
2022/05/04 12:44:37;;;;;;;121.22;111.38;;;16.60;52.20;;;;;;4996316;28;20047;-74
2022/05/04 12:47:04;;;;;;;124.22;114.25;;;16.50;53.60;;;;;;4995683;28;20970;-74
2022/05/04 12:49:31;;;;;;;119.53;109.93;;;16.60;52.70;;;;;;4996452;28;20560;-74
2022/05/04 12:51:59;;;;;;;119.97;109.90;;;16.60;52.80;;;;;;4996375;28;20532;-74
2022/05/04 12:54:26;;;;;;;120.45;110.22;;;16.60;52.80;;;;;;4996569;28;20078;-74
2022/05/04 12:56:54;;;;;;;120.93;111.38;;;16.70;53.90;;;;;;4995543;28;20065;-75
2022/05/04 12:59:21;;;;;;;120.03;110.32;;;16.80;54.00;;;;;;4996149;28;20494;-74
2022/05/04 13:01:48;;;;;;;121.43;111.70;;;16.90;54.10;;;;;;4995638;28;20141;-74